Terminal Aerodrome Forecast
Issued by NWS Tulsa, OK

Home | Current Version | Previous Version | Text Only | Print | Product List | Glossary On
Versions: 1 2 3 4 5 6 7 8 9 10 11 12 13 14 15 16 17
000
FTUS44 KTSA 290700 AAA
TAFTUL
TAF AMD
KTUL 290702Z 2907/3006 15008KT P6SM -TSRA OVC040CB
      TEMPO 2907/2910 3SM -TSRA BKN025CB
     FM291800 21006KT P6SM OVC250
     FM300000 16007KT P6SM OVC100 PROB30 3000/3006 -TSRA BKN040CB=

USA.gov is the U.S. government's official web portal to all federal, state and local government web resources and services.